Terminal Aerodrome Forecast
Issued by NWS

Home | Current Version | Previous Version | Text Only | Print | Product List | Glossary On
Versions: 1 2 3 4 5 6 7 8 9 10 11 12
000
FTUS44 KLUB 281732
TAFCDS
TAF
KCDS 281732Z 2818/2918 26015G23KT P6SM SCT250
     FM290000 32007KT P6SM FEW250
     FM290900 36013KT P6SM SCT250=

USA.gov is the U.S. government's official web portal to all federal, state and local government web resources and services.